CPZ7 weather

MacTier/Francis Island Seaplane Base
Ontario, Canada

Public forecast

Using degrees Celsius for public forecast. Weather courtesy of forecast.io.

Closest aviation weather report (METAR) to MacTier/Francis Island Seaplane Base

Closest report is Muskoka Airport, 32.1 nm (59.5 km) ESE. Retrieved 2019/10/23 08:00 UTC (43 minutes ago):

CYQA 230800Z AUTO 18007KT 9SM CLR 06/03 A2969 RMK SLP061

Closest aviation forecast (TAF) to MacTier/Francis Island Seaplane Base

Forecast is more than 12 hours old.

Closest forecast is Muskoka Airport, 32.1 nm (59.5 km) ESE. Retrieved 2019/10/22 20:00 UTC (13 hours ago):

TAF CYQA 221938Z 2220/2302 19008KT P6SM SCT015 BKN040 TEMPO 2220/2302 P6SM -SHRA BKN015 RMK FCST BASED ON AUTO OBS NXT FCST WILL BE ISSUED AT 231145Z